sensor_id;sensor_type;location;lat;lon;timestamp;P1;durP1;ratioP1;P2;durP2;ratioP2
3541;SDS011;1785;47.388;8.538;2022-07-29T00:02:12;2.70;;;2.50;;
3541;SDS011;1785;47.388;8.538;2022-07-29T00:04:38;3.00;;;2.80;;
3541;SDS011;1785;47.388;8.538;2022-07-29T00:07:04;2.80;;;2.60;;
3541;SDS011;1785;47.388;8.538;2022-07-29T00:09:31;6.93;;;6.20;;
3541;SDS011;1785;47.388;8.538;2022-07-29T00:11:59;4.87;;;4.57;;
3541;SDS011;1785;47.388;8.538;2022-07-29T00:14:27;4.63;;;4.20;;
3541;SDS011;1785;47.388;8.538;2022-07-29T00:16:53;3.53;;;3.33;;
3541;SDS011;1785;47.388;8.538;2022-07-29T00:19:19;2.87;;;2.57;;
3541;SDS011;1785;47.388;8.538;2022-07-29T00:21:46;2.60;;;2.30;;
3541;SDS011;1785;47.388;8.538;2022-07-29T00:24:12;2.83;;;2.63;;
3541;SDS011;1785;47.388;8.538;2022-07-29T00:26:38;4.10;;;2.40;;
3541;SDS011;1785;47.388;8.538;2022-07-29T00:29:04;2.23;;;2.13;;
3541;SDS011;1785;47.388;8.538;2022-07-29T00:31:31;2.60;;;2.40;;
3541;SDS011;1785;47.388;8.538;2022-07-29T00:33:58;2.47;;;2.13;;
3541;SDS011;1785;47.388;8.538;2022-07-29T00:36:24;2.53;;;2.33;;
3541;SDS011;1785;47.388;8.538;2022-07-29T00:38:50;1.87;;;1.77;;
3541;SDS011;1785;47.388;8.538;2022-07-29T00:41:17;2.10;;;2.00;;
3541;SDS011;1785;47.388;8.538;2022-07-29T00:43:44;1.90;;;1.80;;
3541;SDS011;1785;47.388;8.538;2022-07-29T00:46:10;1.60;;;1.50;;
3541;SDS011;1785;47.388;8.538;2022-07-29T00:48:38;2.63;;;2.43;;
3541;SDS011;1785;47.388;8.538;2022-07-29T00:51:04;2.60;;;2.20;;
3541;SDS011;1785;47.388;8.538;2022-07-29T00:53:32;2.30;;;1.87;;
3541;SDS011;1785;47.388;8.538;2022-07-29T00:55:59;1.90;;;1.80;;
3541;SDS011;1785;47.388;8.538;2022-07-29T00:58:26;2.23;;;2.03;;
3541;SDS011;1785;47.388;8.538;2022-07-29T01:00:52;2.53;;;2.20;;
3541;SDS011;1785;47.388;8.538;2022-07-29T01:03:19;4.70;;;2.30;;
3541;SDS011;1785;47.388;8.538;2022-07-29T01:05:46;2.30;;;1.80;;
3541;SDS011;1785;47.388;8.538;2022-07-29T01:08:12;3.40;;;2.60;;
3541;SDS011;1785;47.388;8.538;2022-07-29T01:10:40;2.10;;;1.90;;
3541;SDS011;1785;47.388;8.538;2022-07-29T01:13:09;2.13;;;1.73;;
3541;SDS011;1785;47.388;8.538;2022-07-29T01:15:40;2.53;;;1.77;;
3541;SDS011;1785;47.388;8.538;2022-07-29T01:18:11;3.43;;;2.07;;
3541;SDS011;1785;47.388;8.538;2022-07-29T01:20:53;2.23;;;2.10;;
3541;SDS011;1785;47.388;8.538;2022-07-29T01:23:46;2.13;;;2.03;;
3541;SDS011;1785;47.388;8.538;2022-07-29T01:26:40;3.63;;;1.93;;
3541;SDS011;1785;47.388;8.538;2022-07-29T01:29:17;2.47;;;2.33;;
3541;SDS011;1785;47.388;8.538;2022-07-29T01:31:51;3.30;;;2.13;;
3541;SDS011;1785;47.388;8.538;2022-07-29T01:34:23;2.47;;;2.27;;
3541;SDS011;1785;47.388;8.538;2022-07-29T01:36:56;3.40;;;2.00;;
3541;SDS011;1785;47.388;8.538;2022-07-29T01:39:29;3.03;;;2.03;;
3541;SDS011;1785;47.388;8.538;2022-07-29T01:41:57;2.20;;;2.00;;
3541;SDS011;1785;47.388;8.538;2022-07-29T01:44:29;2.20;;;2.00;;
3541;SDS011;1785;47.388;8.538;2022-07-29T01:46:58;2.50;;;2.30;;
3541;SDS011;1785;47.388;8.538;2022-07-29T01:49:31;2.03;;;1.90;;
3541;SDS011;1785;47.388;8.538;2022-07-29T01:52:03;2.73;;;2.53;;
3541;SDS011;1785;47.388;8.538;2022-07-29T01:54:35;1.83;;;1.73;;
3541;SDS011;1785;47.388;8.538;2022-07-29T01:57:04;2.17;;;1.97;;
3541;SDS011;1785;47.388;8.538;2022-07-29T01:59:34;1.80;;;1.67;;
3541;SDS011;1785;47.388;8.538;2022-07-29T02:02:02;6.20;;;2.10;;
3541;SDS011;1785;47.388;8.538;2022-07-29T02:04:29;2.30;;;2.10;;
3541;SDS011;1785;47.388;8.538;2022-07-29T02:07:02;4.40;;;2.00;;
3541;SDS011;1785;47.388;8.538;2022-07-29T02:09:31;2.17;;;2.07;;
3541;SDS011;1785;47.388;8.538;2022-07-29T02:11:59;2.77;;;1.80;;
3541;SDS011;1785;47.388;8.538;2022-07-29T02:14:30;2.27;;;2.13;;
3541;SDS011;1785;47.388;8.538;2022-07-29T02:17:00;2.27;;;2.00;;
3541;SDS011;1785;47.388;8.538;2022-07-29T02:19:28;2.30;;;2.10;;
3541;SDS011;1785;47.388;8.538;2022-07-29T02:21:57;3.27;;;2.17;;
3541;SDS011;1785;47.388;8.538;2022-07-29T02:24:25;2.03;;;1.73;;
3541;SDS011;1785;47.388;8.538;2022-07-29T02:26:54;2.13;;;1.87;;
3541;SDS011;1785;47.388;8.538;2022-07-29T02:29:23;3.27;;;1.70;;
3541;SDS011;1785;47.388;8.538;2022-07-29T02:31:53;5.10;;;1.60;;
3541;SDS011;1785;47.388;8.538;2022-07-29T02:34:21;2.73;;;1.60;;
3541;SDS011;1785;47.388;8.538;2022-07-29T02:36:48;1.83;;;1.73;;
3541;SDS011;1785;47.388;8.538;2022-07-29T02:39:15;1.67;;;1.57;;
3541;SDS011;1785;47.388;8.538;2022-07-29T02:41:44;1.67;;;1.57;;
3541;SDS011;1785;47.388;8.538;2022-07-29T02:44:14;1.97;;;1.80;;
3541;SDS011;1785;47.388;8.538;2022-07-29T02:46:43;1.87;;;1.77;;
3541;SDS011;1785;47.388;8.538;2022-07-29T02:49:14;1.87;;;1.67;;
3541;SDS011;1785;47.388;8.538;2022-07-29T02:51:45;1.80;;;1.70;;
3541;SDS011;1785;47.388;8.538;2022-07-29T02:54:18;2.80;;;1.53;;
3541;SDS011;1785;47.388;8.538;2022-07-29T02:56:47;1.97;;;1.87;;
3541;SDS011;1785;47.388;8.538;2022-07-29T02:59:19;1.50;;;1.40;;
3541;SDS011;1785;47.388;8.538;2022-07-29T03:01:51;2.33;;;2.13;;
3541;SDS011;1785;47.388;8.538;2022-07-29T03:04:19;2.00;;;1.90;;
3541;SDS011;1785;47.388;8.538;2022-07-29T03:06:49;2.07;;;1.70;;
3541;SDS011;1785;47.388;8.538;2022-07-29T03:09:16;1.63;;;1.53;;
3541;SDS011;1785;47.388;8.538;2022-07-29T03:11:43;1.73;;;1.60;;
3541;SDS011;1785;47.388;8.538;2022-07-29T03:14:11;2.47;;;2.27;;
3541;SDS011;1785;47.388;8.538;2022-07-29T03:16:37;2.90;;;1.70;;
3541;SDS011;1785;47.388;8.538;2022-07-29T03:19:04;1.60;;;1.50;;
3541;SDS011;1785;47.388;8.538;2022-07-29T03:21:31;2.30;;;2.10;;
3541;SDS011;1785;47.388;8.538;2022-07-29T03:23:58;1.53;;;1.43;;
3541;SDS011;1785;47.388;8.538;2022-07-29T03:26:24;1.77;;;1.67;;
3541;SDS011;1785;47.388;8.538;2022-07-29T03:28:51;2.93;;;1.77;;
3541;SDS011;1785;47.388;8.538;2022-07-29T03:31:17;3.93;;;1.87;;
3541;SDS011;1785;47.388;8.538;2022-07-29T03:33:43;1.93;;;1.73;;
3541;SDS011;1785;47.388;8.538;2022-07-29T03:36:09;4.00;;;1.97;;
3541;SDS011;1785;47.388;8.538;2022-07-29T03:38:36;2.17;;;2.03;;
3541;SDS011;1785;47.388;8.538;2022-07-29T03:41:05;2.03;;;1.90;;
3541;SDS011;1785;47.388;8.538;2022-07-29T03:43:34;2.47;;;2.20;;
3541;SDS011;1785;47.388;8.538;2022-07-29T03:46:03;6.60;;;1.97;;
3541;SDS011;1785;47.388;8.538;2022-07-29T03:48:33;2.53;;;2.27;;
3541;SDS011;1785;47.388;8.538;2022-07-29T03:51:01;2.40;;;2.20;;
3541;SDS011;1785;47.388;8.538;2022-07-29T03:53:28;1.70;;;1.60;;
3541;SDS011;1785;47.388;8.538;2022-07-29T03:55:56;2.10;;;1.60;;
3541;SDS011;1785;47.388;8.538;2022-07-29T03:58:26;2.47;;;2.27;;
3541;SDS011;1785;47.388;8.538;2022-07-29T04:00:53;2.70;;;2.07;;
3541;SDS011;1785;47.388;8.538;2022-07-29T04:03:20;2.37;;;2.17;;
3541;SDS011;1785;47.388;8.538;2022-07-29T04:05:57;2.70;;;2.20;;
3541;SDS011;1785;47.388;8.538;2022-07-29T04:08:24;2.80;;;2.60;;
3541;SDS011;1785;47.388;8.538;2022-07-29T04:10:51;1.90;;;1.80;;
3541;SDS011;1785;47.388;8.538;2022-07-29T04:13:17;2.50;;;1.90;;
3541;SDS011;1785;47.388;8.538;2022-07-29T04:15:45;2.30;;;2.10;;
3541;SDS011;1785;47.388;8.538;2022-07-29T04:18:11;1.70;;;1.60;;
3541;SDS011;1785;47.388;8.538;2022-07-29T04:20:37;1.67;;;1.57;;
3541;SDS011;1785;47.388;8.538;2022-07-29T04:23:03;3.67;;;1.77;;
3541;SDS011;1785;47.388;8.538;2022-07-29T04:25:30;4.53;;;2.20;;
3541;SDS011;1785;47.388;8.538;2022-07-29T04:27:56;2.87;;;2.30;;
3541;SDS011;1785;47.388;8.538;2022-07-29T04:30:28;1.80;;;1.70;;
3541;SDS011;1785;47.388;8.538;2022-07-29T04:32:56;2.40;;;2.20;;
3541;SDS011;1785;47.388;8.538;2022-07-29T04:35:22;3.47;;;2.10;;
3541;SDS011;1785;47.388;8.538;2022-07-29T04:37:49;2.00;;;1.90;;
3541;SDS011;1785;47.388;8.538;2022-07-29T04:40:15;2.43;;;1.87;;
3541;SDS011;1785;47.388;8.538;2022-07-29T04:42:42;2.00;;;1.80;;
3541;SDS011;1785;47.388;8.538;2022-07-29T04:45:08;2.90;;;2.33;;
3541;SDS011;1785;47.388;8.538;2022-07-29T04:47:34;3.03;;;2.20;;
3541;SDS011;1785;47.388;8.538;2022-07-29T04:50:01;2.37;;;1.80;;
3541;SDS011;1785;47.388;8.538;2022-07-29T04:52:28;3.60;;;2.30;;
3541;SDS011;1785;47.388;8.538;2022-07-29T04:54:54;5.93;;;2.77;;
3541;SDS011;1785;47.388;8.538;2022-07-29T04:57:20;1.90;;;1.60;;
3541;SDS011;1785;47.388;8.538;2022-07-29T04:59:47;2.90;;;2.60;;
3541;SDS011;1785;47.388;8.538;2022-07-29T05:02:13;2.03;;;1.93;;
3541;SDS011;1785;47.388;8.538;2022-07-29T05:04:39;2.60;;;2.40;;
3541;SDS011;1785;47.388;8.538;2022-07-29T05:07:06;2.70;;;2.50;;
3541;SDS011;1785;47.388;8.538;2022-07-29T05:09:33;4.80;;;2.30;;
3541;SDS011;1785;47.388;8.538;2022-07-29T05:11:59;2.60;;;2.40;;
3541;SDS011;1785;47.388;8.538;2022-07-29T05:14:25;2.90;;;2.50;;
3541;SDS011;1785;47.388;8.538;2022-07-29T05:16:51;2.20;;;2.00;;
3541;SDS011;1785;47.388;8.538;2022-07-29T05:19:21;2.10;;;2.00;;
3541;SDS011;1785;47.388;8.538;2022-07-29T05:21:47;4.70;;;2.50;;
3541;SDS011;1785;47.388;8.538;2022-07-29T05:24:15;2.00;;;1.90;;
3541;SDS011;1785;47.388;8.538;2022-07-29T05:26:41;2.53;;;2.30;;
3541;SDS011;1785;47.388;8.538;2022-07-29T05:29:07;2.80;;;2.60;;
3541;SDS011;1785;47.388;8.538;2022-07-29T05:31:34;2.30;;;2.10;;
3541;SDS011;1785;47.388;8.538;2022-07-29T05:34:00;3.43;;;2.63;;
3541;SDS011;1785;47.388;8.538;2022-07-29T05:36:26;3.30;;;3.07;;
3541;SDS011;1785;47.388;8.538;2022-07-29T05:38:52;2.90;;;2.57;;
3541;SDS011;1785;47.388;8.538;2022-07-29T05:41:20;2.53;;;2.33;;
3541;SDS011;1785;47.388;8.538;2022-07-29T05:43:46;6.17;;;3.20;;
3541;SDS011;1785;47.388;8.538;2022-07-29T05:46:12;3.77;;;2.57;;
3541;SDS011;1785;47.388;8.538;2022-07-29T05:48:39;3.20;;;3.00;;
3541;SDS011;1785;47.388;8.538;2022-07-29T05:51:05;3.70;;;2.70;;
3541;SDS011;1785;47.388;8.538;2022-07-29T05:53:31;2.73;;;2.30;;
3541;SDS011;1785;47.388;8.538;2022-07-29T05:55:58;2.80;;;2.60;;
3541;SDS011;1785;47.388;8.538;2022-07-29T05:58:35;4.30;;;2.90;;
3541;SDS011;1785;47.388;8.538;2022-07-29T06:01:01;3.13;;;2.80;;
3541;SDS011;1785;47.388;8.538;2022-07-29T06:03:27;3.03;;;2.83;;
3541;SDS011;1785;47.388;8.538;2022-07-29T06:05:54;3.20;;;2.90;;
3541;SDS011;1785;47.388;8.538;2022-07-29T06:08:20;3.73;;;2.80;;
3541;SDS011;1785;47.388;8.538;2022-07-29T06:10:46;3.47;;;2.33;;
3541;SDS011;1785;47.388;8.538;2022-07-29T06:13:13;3.13;;;2.83;;
3541;SDS011;1785;47.388;8.538;2022-07-29T06:15:41;3.10;;;2.80;;
3541;SDS011;1785;47.388;8.538;2022-07-29T06:18:08;2.80;;;2.60;;
3541;SDS011;1785;47.388;8.538;2022-07-29T06:20:35;3.60;;;2.50;;
3541;SDS011;1785;47.388;8.538;2022-07-29T06:23:01;2.97;;;2.77;;
3541;SDS011;1785;47.388;8.538;2022-07-29T06:25:29;3.10;;;2.90;;
3541;SDS011;1785;47.388;8.538;2022-07-29T06:27:57;2.90;;;2.47;;
3541;SDS011;1785;47.388;8.538;2022-07-29T06:30:23;3.00;;;2.77;;
3541;SDS011;1785;47.388;8.538;2022-07-29T06:32:50;4.10;;;2.63;;
3541;SDS011;1785;47.388;8.538;2022-07-29T06:35:16;7.10;;;2.73;;
3541;SDS011;1785;47.388;8.538;2022-07-29T06:37:43;4.50;;;2.27;;
3541;SDS011;1785;47.388;8.538;2022-07-29T06:40:09;5.77;;;2.90;;
3541;SDS011;1785;47.388;8.538;2022-07-29T06:42:55;2.40;;;2.07;;
3541;SDS011;1785;47.388;8.538;2022-07-29T06:45:21;6.13;;;2.77;;
3541;SDS011;1785;47.388;8.538;2022-07-29T06:47:47;3.40;;;2.50;;
3541;SDS011;1785;47.388;8.538;2022-07-29T06:50:15;2.80;;;2.13;;
3541;SDS011;1785;47.388;8.538;2022-07-29T06:52:41;3.43;;;2.20;;
3541;SDS011;1785;47.388;8.538;2022-07-29T06:55:08;6.57;;;3.33;;
3541;SDS011;1785;47.388;8.538;2022-07-29T06:57:34;4.63;;;3.80;;
3541;SDS011;1785;47.388;8.538;2022-07-29T07:00:01;3.55;;;3.20;;
3541;SDS011;1785;47.388;8.538;2022-07-29T07:02:29;7.93;;;3.60;;
3541;SDS011;1785;47.388;8.538;2022-07-29T07:04:56;4.07;;;3.77;;
3541;SDS011;1785;47.388;8.538;2022-07-29T07:07:22;5.03;;;3.23;;
3541;SDS011;1785;47.388;8.538;2022-07-29T07:09:49;4.50;;;3.57;;
3541;SDS011;1785;47.388;8.538;2022-07-29T07:12:15;4.97;;;3.20;;
3541;SDS011;1785;47.388;8.538;2022-07-29T07:14:41;3.90;;;3.57;;
3541;SDS011;1785;47.388;8.538;2022-07-29T07:17:07;3.77;;;3.40;;
3541;SDS011;1785;47.388;8.538;2022-07-29T07:19:34;3.93;;;3.60;;
3541;SDS011;1785;47.388;8.538;2022-07-29T07:22:00;5.78;;;3.88;;
3541;SDS011;1785;47.388;8.538;2022-07-29T07:24:27;4.60;;;4.00;;
3541;SDS011;1785;47.388;8.538;2022-07-29T07:26:53;6.53;;;4.33;;
3541;SDS011;1785;47.388;8.538;2022-07-29T07:29:19;4.03;;;3.03;;
3541;SDS011;1785;47.388;8.538;2022-07-29T07:31:46;5.03;;;3.60;;
3541;SDS011;1785;47.388;8.538;2022-07-29T07:34:12;3.40;;;3.20;;
3541;SDS011;1785;47.388;8.538;2022-07-29T07:36:38;4.97;;;3.17;;
3541;SDS011;1785;47.388;8.538;2022-07-29T07:39:04;5.33;;;3.23;;
3541;SDS011;1785;47.388;8.538;2022-07-29T07:41:31;3.83;;;3.53;;
3541;SDS011;1785;47.388;8.538;2022-07-29T07:43:57;3.57;;;3.23;;
3541;SDS011;1785;47.388;8.538;2022-07-29T07:46:24;4.40;;;3.13;;
3541;SDS011;1785;47.388;8.538;2022-07-29T07:48:50;4.10;;;3.70;;
3541;SDS011;1785;47.388;8.538;2022-07-29T07:51:17;4.23;;;3.10;;
3541;SDS011;1785;47.388;8.538;2022-07-29T07:53:43;5.03;;;3.60;;
3541;SDS011;1785;47.388;8.538;2022-07-29T07:56:10;3.80;;;3.50;;
3541;SDS011;1785;47.388;8.538;2022-07-29T07:58:37;4.17;;;3.87;;
3541;SDS011;1785;47.388;8.538;2022-07-29T08:01:03;5.30;;;3.47;;
3541;SDS011;1785;47.388;8.538;2022-07-29T08:03:30;4.60;;;3.63;;
3541;SDS011;1785;47.388;8.538;2022-07-29T08:05:56;4.03;;;3.73;;
3541;SDS011;1785;47.388;8.538;2022-07-29T08:08:22;6.17;;;3.57;;
3541;SDS011;1785;47.388;8.538;2022-07-29T08:10:48;3.70;;;3.47;;
3541;SDS011;1785;47.388;8.538;2022-07-29T08:13:18;3.97;;;3.40;;
3541;SDS011;1785;47.388;8.538;2022-07-29T08:15:46;4.43;;;4.00;;
3541;SDS011;1785;47.388;8.538;2022-07-29T08:18:12;6.77;;;4.30;;
3541;SDS011;1785;47.388;8.538;2022-07-29T08:20:39;4.83;;;4.40;;
3541;SDS011;1785;47.388;8.538;2022-07-29T08:23:06;4.67;;;4.27;;
3541;SDS011;1785;47.388;8.538;2022-07-29T08:25:34;3.90;;;3.60;;
3541;SDS011;1785;47.388;8.538;2022-07-29T08:28:01;3.90;;;3.60;;
3541;SDS011;1785;47.388;8.538;2022-07-29T08:30:28;3.97;;;3.67;;
3541;SDS011;1785;47.388;8.538;2022-07-29T08:32:55;7.50;;;4.60;;
3541;SDS011;1785;47.388;8.538;2022-07-29T08:35:22;4.83;;;3.93;;
3541;SDS011;1785;47.388;8.538;2022-07-29T08:37:49;4.70;;;4.20;;
3541;SDS011;1785;47.388;8.538;2022-07-29T08:40:15;4.53;;;3.70;;
3541;SDS011;1785;47.388;8.538;2022-07-29T08:42:42;6.40;;;4.67;;
3541;SDS011;1785;47.388;8.538;2022-07-29T08:45:09;5.43;;;4.10;;
3541;SDS011;1785;47.388;8.538;2022-07-29T08:47:36;4.27;;;3.80;;
3541;SDS011;1785;47.388;8.538;2022-07-29T08:50:06;4.30;;;4.00;;
3541;SDS011;1785;47.388;8.538;2022-07-29T08:52:34;5.40;;;4.87;;
3541;SDS011;1785;47.388;8.538;2022-07-29T08:55:02;4.37;;;3.83;;
3541;SDS011;1785;47.388;8.538;2022-07-29T08:57:28;5.43;;;4.93;;
3541;SDS011;1785;47.388;8.538;2022-07-29T08:59:55;4.57;;;4.27;;
3541;SDS011;1785;47.388;8.538;2022-07-29T09:02:24;5.20;;;4.83;;
3541;SDS011;1785;47.388;8.538;2022-07-29T09:04:54;4.93;;;4.37;;
3541;SDS011;1785;47.388;8.538;2022-07-29T09:07:23;5.77;;;4.60;;
3541;SDS011;1785;47.388;8.538;2022-07-29T09:09:50;4.40;;;4.00;;
3541;SDS011;1785;47.388;8.538;2022-07-29T09:12:16;4.10;;;3.80;;
3541;SDS011;1785;47.388;8.538;2022-07-29T09:14:43;4.13;;;3.83;;
3541;SDS011;1785;47.388;8.538;2022-07-29T09:17:09;4.53;;;4.13;;
3541;SDS011;1785;47.388;8.538;2022-07-29T09:19:36;6.20;;;5.60;;
3541;SDS011;1785;47.388;8.538;2022-07-29T09:22:03;6.10;;;5.60;;
3541;SDS011;1785;47.388;8.538;2022-07-29T09:24:37;6.50;;;5.60;;
3541;SDS011;1785;47.388;8.538;2022-07-29T09:27:09;6.40;;;5.27;;
3541;SDS011;1785;47.388;8.538;2022-07-29T09:29:36;5.95;;;5.20;;
3541;SDS011;1785;47.388;8.538;2022-07-29T09:32:05;7.03;;;5.40;;
3541;SDS011;1785;47.388;8.538;2022-07-29T09:34:33;7.23;;;5.70;;
3541;SDS011;1785;47.388;8.538;2022-07-29T09:36:59;7.17;;;5.20;;
3541;SDS011;1785;47.388;8.538;2022-07-29T09:39:27;4.67;;;4.23;;
3541;SDS011;1785;47.388;8.538;2022-07-29T09:41:56;4.17;;;3.77;;
3541;SDS011;1785;47.388;8.538;2022-07-29T09:44:24;4.83;;;4.03;;
3541;SDS011;1785;47.388;8.538;2022-07-29T09:46:54;7.67;;;4.23;;
3541;SDS011;1785;47.388;8.538;2022-07-29T09:49:24;4.53;;;3.80;;
3541;SDS011;1785;47.388;8.538;2022-07-29T09:52:00;5.27;;;4.70;;
3541;SDS011;1785;47.388;8.538;2022-07-29T09:54:29;4.67;;;4.17;;
3541;SDS011;1785;47.388;8.538;2022-07-29T09:57:02;5.40;;;4.50;;
3541;SDS011;1785;47.388;8.538;2022-07-29T09:59:29;4.53;;;4.23;;
3541;SDS011;1785;47.388;8.538;2022-07-29T10:01:56;4.40;;;4.10;;
3541;SDS011;1785;47.388;8.538;2022-07-29T10:04:22;3.73;;;3.20;;
3541;SDS011;1785;47.388;8.538;2022-07-29T10:06:55;4.40;;;3.90;;
3541;SDS011;1785;47.388;8.538;2022-07-29T10:09:22;5.00;;;3.90;;
3541;SDS011;1785;47.388;8.538;2022-07-29T10:12:02;6.00;;;4.07;;
3541;SDS011;1785;47.388;8.538;2022-07-29T10:14:34;4.43;;;4.07;;
3541;SDS011;1785;47.388;8.538;2022-07-29T10:17:01;6.10;;;3.40;;
3541;SDS011;1785;47.388;8.538;2022-07-29T10:19:28;4.77;;;4.27;;
3541;SDS011;1785;47.388;8.538;2022-07-29T10:21:56;4.17;;;3.37;;
3541;SDS011;1785;47.388;8.538;2022-07-29T10:24:23;4.03;;;3.63;;
3541;SDS011;1785;47.388;8.538;2022-07-29T10:26:51;4.87;;;4.37;;
3541;SDS011;1785;47.388;8.538;2022-07-29T10:29:20;3.70;;;3.40;;
3541;SDS011;1785;47.388;8.538;2022-07-29T10:32:04;3.90;;;3.53;;
3541;SDS011;1785;47.388;8.538;2022-07-29T10:34:55;3.40;;;3.10;;
3541;SDS011;1785;47.388;8.538;2022-07-29T10:37:33;4.53;;;4.07;;
3541;SDS011;1785;47.388;8.538;2022-07-29T10:40:15;3.50;;;3.30;;
3541;SDS011;1785;47.388;8.538;2022-07-29T10:43:14;4.53;;;4.13;;
3541;SDS011;1785;47.388;8.538;2022-07-29T10:45:45;3.93;;;3.53;;
3541;SDS011;1785;47.388;8.538;2022-07-29T10:48:13;3.73;;;3.43;;
3541;SDS011;1785;47.388;8.538;2022-07-29T10:50:53;5.10;;;4.20;;
3541;SDS011;1785;47.388;8.538;2022-07-29T10:53:20;6.53;;;4.27;;
3541;SDS011;1785;47.388;8.538;2022-07-29T10:55:46;4.17;;;3.77;;
3541;SDS011;1785;47.388;8.538;2022-07-29T10:58:15;4.63;;;3.83;;
3541;SDS011;1785;47.388;8.538;2022-07-29T11:00:42;3.63;;;3.30;;
3541;SDS011;1785;47.388;8.538;2022-07-29T11:03:10;6.37;;;3.40;;
3541;SDS011;1785;47.388;8.538;2022-07-29T11:06:09;3.97;;;3.67;;
3541;SDS011;1785;47.388;8.538;2022-07-29T11:08:35;6.30;;;3.47;;
3541;SDS011;1785;47.388;8.538;2022-07-29T11:14:03;4.10;;;3.77;;
3541;SDS011;1785;47.388;8.538;2022-07-29T11:19:25;4.00;;;3.60;;
3541;SDS011;1785;47.388;8.538;2022-07-29T11:21:51;4.93;;;3.27;;
3541;SDS011;1785;47.388;8.538;2022-07-29T11:24:19;5.17;;;3.70;;
3541;SDS011;1785;47.388;8.538;2022-07-29T11:29:38;4.50;;;4.10;;
3541;SDS011;1785;47.388;8.538;2022-07-29T11:32:19;5.30;;;3.93;;
3541;SDS011;1785;47.388;8.538;2022-07-29T11:34:47;8.03;;;4.00;;
3541;SDS011;1785;47.388;8.538;2022-07-29T11:37:15;3.93;;;3.63;;
3541;SDS011;1785;47.388;8.538;2022-07-29T11:40:07;7.93;;;4.53;;
3541;SDS011;1785;47.388;8.538;2022-07-29T11:42:39;5.13;;;4.00;;
3541;SDS011;1785;47.388;8.538;2022-07-29T11:45:10;4.57;;;4.20;;
3541;SDS011;1785;47.388;8.538;2022-07-29T11:47:39;4.33;;;3.80;;
3541;SDS011;1785;47.388;8.538;2022-07-29T11:50:08;5.43;;;4.00;;
3541;SDS011;1785;47.388;8.538;2022-07-29T11:52:38;4.50;;;4.10;;
3541;SDS011;1785;47.388;8.538;2022-07-29T11:55:08;8.87;;;4.13;;
3541;SDS011;1785;47.388;8.538;2022-07-29T11:57:36;3.73;;;3.43;;
3541;SDS011;1785;47.388;8.538;2022-07-29T12:00:02;5.00;;;4.10;;
3541;SDS011;1785;47.388;8.538;2022-07-29T12:02:39;7.37;;;3.73;;
3541;SDS011;1785;47.388;8.538;2022-07-29T12:05:07;4.10;;;3.80;;
3541;SDS011;1785;47.388;8.538;2022-07-29T12:07:35;4.43;;;4.03;;
3541;SDS011;1785;47.388;8.538;2022-07-29T12:10:02;3.50;;;3.30;;
3541;SDS011;1785;47.388;8.538;2022-07-29T12:12:29;5.10;;;4.40;;
3541;SDS011;1785;47.388;8.538;2022-07-29T12:14:55;5.00;;;4.07;;
3541;SDS011;1785;47.388;8.538;2022-07-29T12:17:25;5.33;;;3.90;;
3541;SDS011;1785;47.388;8.538;2022-07-29T12:19:53;4.33;;;3.90;;
3541;SDS011;1785;47.388;8.538;2022-07-29T12:22:25;4.67;;;4.20;;
3541;SDS011;1785;47.388;8.538;2022-07-29T12:24:51;5.27;;;4.77;;
3541;SDS011;1785;47.388;8.538;2022-07-29T12:27:18;4.90;;;4.00;;
3541;SDS011;1785;47.388;8.538;2022-07-29T12:32:30;5.87;;;3.53;;
3541;SDS011;1785;47.388;8.538;2022-07-29T12:34:57;4.90;;;4.40;;
3541;SDS011;1785;47.388;8.538;2022-07-29T12:37:25;4.20;;;3.63;;
3541;SDS011;1785;47.388;8.538;2022-07-29T12:39:51;3.80;;;3.50;;
3541;SDS011;1785;47.388;8.538;2022-07-29T12:42:17;4.07;;;3.80;;
3541;SDS011;1785;47.388;8.538;2022-07-29T12:44:47;6.17;;;3.67;;
3541;SDS011;1785;47.388;8.538;2022-07-29T12:47:14;4.60;;;4.30;;
3541;SDS011;1785;47.388;8.538;2022-07-29T12:49:41;4.90;;;4.43;;
3541;SDS011;1785;47.388;8.538;2022-07-29T12:54:50;5.27;;;4.77;;
3541;SDS011;1785;47.388;8.538;2022-07-29T12:57:16;5.30;;;4.80;;
3541;SDS011;1785;47.388;8.538;2022-07-29T12:59:43;5.20;;;4.80;;
3541;SDS011;1785;47.388;8.538;2022-07-29T13:02:19;5.60;;;5.17;;
3541;SDS011;1785;47.388;8.538;2022-07-29T13:04:54;5.10;;;4.60;;
3541;SDS011;1785;47.388;8.538;2022-07-29T13:07:23;4.53;;;4.13;;
3541;SDS011;1785;47.388;8.538;2022-07-29T13:09:52;5.50;;;5.10;;
3541;SDS011;1785;47.388;8.538;2022-07-29T13:12:18;5.97;;;5.37;;
3541;SDS011;1785;47.388;8.538;2022-07-29T13:14:46;5.20;;;4.80;;
3541;SDS011;1785;47.388;8.538;2022-07-29T13:17:13;6.00;;;4.73;;
3541;SDS011;1785;47.388;8.538;2022-07-29T13:19:41;5.13;;;4.73;;
3541;SDS011;1785;47.388;8.538;2022-07-29T13:22:09;7.73;;;4.10;;
3541;SDS011;1785;47.388;8.538;2022-07-29T13:24:49;6.73;;;4.83;;
3541;SDS011;1785;47.388;8.538;2022-07-29T13:27:17;5.80;;;4.87;;
3541;SDS011;1785;47.388;8.538;2022-07-29T13:29:44;10.17;;;6.40;;
3541;SDS011;1785;47.388;8.538;2022-07-29T13:32:11;11.60;;;7.37;;
3541;SDS011;1785;47.388;8.538;2022-07-29T13:34:38;9.17;;;7.10;;
3541;SDS011;1785;47.388;8.538;2022-07-29T13:37:05;7.27;;;6.60;;
3541;SDS011;1785;47.388;8.538;2022-07-29T13:39:31;9.30;;;7.00;;
3541;SDS011;1785;47.388;8.538;2022-07-29T13:41:58;7.20;;;6.10;;
3541;SDS011;1785;47.388;8.538;2022-07-29T13:44:24;7.03;;;5.90;;
3541;SDS011;1785;47.388;8.538;2022-07-29T13:46:51;6.77;;;6.27;;
3541;SDS011;1785;47.388;8.538;2022-07-29T13:49:17;8.40;;;6.63;;
3541;SDS011;1785;47.388;8.538;2022-07-29T13:51:43;7.53;;;5.67;;
3541;SDS011;1785;47.388;8.538;2022-07-29T13:54:10;7.33;;;6.23;;
3541;SDS011;1785;47.388;8.538;2022-07-29T13:56:36;7.70;;;6.27;;
3541;SDS011;1785;47.388;8.538;2022-07-29T13:59:02;6.10;;;5.60;;
3541;SDS011;1785;47.388;8.538;2022-07-29T14:01:29;7.20;;;6.50;;
3541;SDS011;1785;47.388;8.538;2022-07-29T14:03:55;7.47;;;5.67;;
3541;SDS011;1785;47.388;8.538;2022-07-29T14:06:22;6.40;;;5.80;;
3541;SDS011;1785;47.388;8.538;2022-07-29T14:08:48;8.40;;;6.37;;
3541;SDS011;1785;47.388;8.538;2022-07-29T14:11:14;7.10;;;5.70;;
3541;SDS011;1785;47.388;8.538;2022-07-29T14:13:40;8.10;;;6.03;;
3541;SDS011;1785;47.388;8.538;2022-07-29T14:16:06;6.97;;;6.40;;
3541;SDS011;1785;47.388;8.538;2022-07-29T14:18:33;7.97;;;7.30;;
3541;SDS011;1785;47.388;8.538;2022-07-29T14:21:00;9.30;;;8.40;;
3541;SDS011;1785;47.388;8.538;2022-07-29T14:23:26;8.70;;;7.90;;
3541;SDS011;1785;47.388;8.538;2022-07-29T14:25:52;9.40;;;8.10;;
3541;SDS011;1785;47.388;8.538;2022-07-29T14:28:18;8.73;;;7.93;;
3541;SDS011;1785;47.388;8.538;2022-07-29T14:30:45;9.23;;;8.40;;
3541;SDS011;1785;47.388;8.538;2022-07-29T14:33:11;9.13;;;8.43;;
3541;SDS011;1785;47.388;8.538;2022-07-29T14:35:38;9.37;;;8.20;;
3541;SDS011;1785;47.388;8.538;2022-07-29T14:38:04;10.00;;;8.20;;
3541;SDS011;1785;47.388;8.538;2022-07-29T14:40:30;8.30;;;7.60;;
3541;SDS011;1785;47.388;8.538;2022-07-29T14:42:57;9.17;;;8.47;;
3541;SDS011;1785;47.388;8.538;2022-07-29T14:45:23;8.13;;;7.43;;
3541;SDS011;1785;47.388;8.538;2022-07-29T14:47:49;9.93;;;8.33;;
3541;SDS011;1785;47.388;8.538;2022-07-29T14:50:16;8.77;;;7.97;;
3541;SDS011;1785;47.388;8.538;2022-07-29T14:52:44;9.07;;;7.70;;
3541;SDS011;1785;47.388;8.538;2022-07-29T14:55:10;8.87;;;7.97;;
3541;SDS011;1785;47.388;8.538;2022-07-29T14:57:36;8.37;;;7.67;;
3541;SDS011;1785;47.388;8.538;2022-07-29T15:00:03;9.40;;;8.50;;
3541;SDS011;1785;47.388;8.538;2022-07-29T15:02:31;11.23;;;8.30;;
3541;SDS011;1785;47.388;8.538;2022-07-29T15:04:57;8.60;;;7.90;;
3541;SDS011;1785;47.388;8.538;2022-07-29T15:07:24;9.70;;;7.57;;
3541;SDS011;1785;47.388;8.538;2022-07-29T15:09:51;15.60;;;7.50;;
3541;SDS011;1785;47.388;8.538;2022-07-29T15:12:17;7.60;;;7.00;;
3541;SDS011;1785;47.388;8.538;2022-07-29T15:14:44;8.67;;;7.37;;
3541;SDS011;1785;47.388;8.538;2022-07-29T15:17:10;8.83;;;7.67;;
3541;SDS011;1785;47.388;8.538;2022-07-29T15:19:37;8.13;;;7.40;;
3541;SDS011;1785;47.388;8.538;2022-07-29T15:22:03;8.33;;;6.90;;
3541;SDS011;1785;47.388;8.538;2022-07-29T15:24:30;7.77;;;7.17;;
3541;SDS011;1785;47.388;8.538;2022-07-29T15:26:57;7.13;;;6.53;;
3541;SDS011;1785;47.388;8.538;2022-07-29T15:29:23;6.57;;;6.10;;
3541;SDS011;1785;47.388;8.538;2022-07-29T15:31:49;9.57;;;7.40;;
3541;SDS011;1785;47.388;8.538;2022-07-29T15:34:15;7.30;;;6.70;;
3541;SDS011;1785;47.388;8.538;2022-07-29T15:36:42;8.33;;;7.63;;